»·PEaware :: N831CR L52-L88

N831CR :: L52-L88

FLIGHT INFORMATION

Flight Status: Arrived
Operator: Privately registered:
United States
More flights under this callsign
Pilot: Christopher S. (28961)
Aircraft: CIRRUS SR-20
(SR20)
More flights by this aircraft type
Origin: L52 Oceano Co
United States
Destination: L88 New Cuyama
United States
More flights between these airports :: More routes between these airports
Route: DIRECT
File this flight plan on PilotEdge
Remarks: CAT1
Altitude:
(Current/Filed)
7,500ft
Speed:
(Current/Filed)
150kts
Departed: 29-Apr-20 10:19 AM
Arrived: 29-Apr-20 10:50 AM
Distance/Time
Traveled:
47nm/0:31
Distance/Time
To Go:
Arrived

Flight Plot

Page will automatically refresh every two minutes.


Map Options




Map Legend


Flown Route
Filed Route
Departure Airport
Arrival Airport
Navaid (VOR, NDB)
Fix

Horizontal Profiles

Position Reports

Time Latitude Longitude Heading Altitude Ground
Speed
29-Apr-20 09:55 35.103406 -120.624442 32 13ft 0kts
29-Apr-20 09:56 35.103405 -120.624442 32 13ft 0kts
29-Apr-20 09:58 35.103423 -120.624397 64 13ft 2kts
29-Apr-20 09:58 35.103509 -120.625056 273 12ft 0kts
29-Apr-20 09:59 35.103661 -120.624923 226 12ft 0kts
29-Apr-20 10:00 35.103659 -120.624925 214 12ft 0kts
29-Apr-20 10:01 35.103659 -120.624925 214 12ft 0kts
29-Apr-20 10:02 35.103659 -120.624925 214 12ft 0kts
29-Apr-20 10:03 35.103659 -120.624925 214 12ft 0kts
29-Apr-20 10:04 35.103659 -120.624925 214 12ft 0kts
29-Apr-20 10:05 35.103659 -120.624925 214 12ft 0kts
29-Apr-20 10:06 35.103659 -120.624925 214 12ft 0kts
29-Apr-20 10:07 35.103659 -120.624925 214 12ft 0kts
29-Apr-20 10:08 35.103659 -120.624925 214 12ft 0kts
29-Apr-20 10:09 35.103659 -120.624925 214 12ft 0kts
29-Apr-20 10:10 35.103659 -120.624925 214 12ft 0kts
29-Apr-20 10:11 35.103658 -120.624925 212 12ft 0kts
29-Apr-20 10:12 35.103651 -120.624928 188 12ft 0kts
29-Apr-20 10:13 35.102846 -120.623738 113 14ft 7kts
29-Apr-20 10:14 35.102065 -120.622231 133 15ft 0kts
29-Apr-20 10:15 35.101949 -120.622145 160 15ft 0kts
29-Apr-20 10:16 35.100708 -120.621666 121 15ft 13kts
29-Apr-20 10:17 35.099608 -120.619514 66 15ft 0kts
29-Apr-20 10:18 35.104005 -120.626894 300 242ft 72kts
29-Apr-20 10:19 35.111252 -120.639622 306 512ft 98kts
29-Apr-20 10:20 35.132760 -120.637007 71 1196ft 109kts
29-Apr-20 10:21 35.114158 -120.615042 164 1864ft 107kts
29-Apr-20 10:22 35.092674 -120.594187 116 2475ft 105kts
29-Apr-20 10:23 35.089547 -120.560851 89 3080ft 110kts
29-Apr-20 10:24 35.086883 -120.525224 91 3690ft 112kts
29-Apr-20 10:25 35.086579 -120.518361 90 3808ft 111kts
29-Apr-20 10:26 35.084918 -120.502675 107 4039ft 113kts
29-Apr-20 10:27 35.077161 -120.466778 109 4601ft 114kts
29-Apr-20 10:28 35.068776 -120.431248 96 5135ft 115kts
29-Apr-20 10:29 35.067158 -120.393986 104 5602ft 118kts
29-Apr-20 10:30 35.056743 -120.353705 105 5805ft 137kts
29-Apr-20 10:31 35.048715 -120.305925 102 5592ft 160kts
29-Apr-20 10:32 35.038957 -120.255277 107 5543ft 153kts
29-Apr-20 10:33 35.029459 -120.206909 101 5546ft 153kts
29-Apr-20 10:34 35.023190 -120.157860 85 5571ft 157kts
29-Apr-20 10:35 35.020302 -120.110584 133 5570ft 153kts
29-Apr-20 10:36 35.003431 -120.066185 105 5549ft 156kts
29-Apr-20 10:37 34.993423 -120.017109 103 5554ft 153kts
29-Apr-20 10:38 34.988694 -119.965651 93 5095ft 156kts
29-Apr-20 10:39 34.988683 -119.965480 93 5093ft 156kts
29-Apr-20 10:40 34.988683 -119.965480 93 5093ft 156kts
29-Apr-20 10:41 34.985695 -119.946223 101 4947ft 156kts
29-Apr-20 10:42 34.978351 -119.900091 98 4389ft 129kts
29-Apr-20 10:43 34.972361 -119.861522 99 3736ft 117kts
29-Apr-20 10:44 34.975429 -119.823575 82 3112ft 105kts
29-Apr-20 10:45 34.973358 -119.790883 99 2720ft 92kts
29-Apr-20 10:46 34.967690 -119.762788 109 2450ft 90kts
29-Apr-20 10:47 34.955291 -119.726621 113 2298ft 132kts
29-Apr-20 10:48 34.944905 -119.697600 119 2172ft 77kts
29-Apr-20 10:49 34.940372 -119.686578 295 2171ft 13kts
29-Apr-20 10:50 34.942415 -119.690669 296 2155ft 5kts
29-Apr-20 10:51 34.943139 -119.690880 203 2153ft 0kts
29-Apr-20 10:52 34.943139 -119.690880 203 2153ft 0kts
29-Apr-20 10:53 34.943139 -119.690880 203 2153ft 0kts
29-Apr-20 10:54 34.943140 -119.690880 203 2153ft 0kts
29-Apr-20 10:55 34.943140 -119.690880 203 2153ft 0kts
29-Apr-20 10:56 34.943140 -119.690880 203 2153ft 0kts
29-Apr-20 10:57 34.943140 -119.690880 203 2153ft 0kts
29-Apr-20 10:58 34.943140 -119.690880 203 2153ft 0kts
29-Apr-20 10:59 34.943140 -119.690880 203 2153ft 0kts
29-Apr-20 11:00 34.943140 -119.690880 203 2153ft 0kts
29-Apr-20 11:01 34.943140 -119.690880 203 2153ft 0kts
29-Apr-20 11:02 34.943140 -119.690880 203 2153ft 0kts
29-Apr-20 11:03 34.943140 -119.690880 203 2153ft 0kts

Navigation Log

Ident Type
Flight plan parsing failed, navigation log unavailable